createdAt,value
2022-11-20T00:01:25.572Z,18.80
2022-11-20T00:03:54.894Z,19.65
2022-11-20T00:06:22.945Z,31.17
2022-11-20T00:08:50.903Z,27.65
2022-11-20T00:11:20.400Z,20.63
2022-11-20T00:13:51.124Z,21.73
2022-11-20T00:16:21.481Z,27.85
2022-11-20T00:18:49.119Z,22.55
2022-11-20T00:21:27.615Z,21.75
2022-11-20T00:23:56.020Z,21.20
2022-11-20T00:26:25.400Z,20.75
2022-11-20T00:28:55.474Z,22.67
2022-11-20T00:31:23.093Z,21.70
2022-11-20T00:33:50.453Z,20.65
2022-11-20T00:36:22.760Z,20.27
2022-11-20T00:38:54.499Z,22.13
2022-11-20T00:41:22.179Z,22.38
2022-11-20T00:43:49.760Z,19.85
2022-11-20T00:46:20.074Z,22.50
2022-11-20T00:48:47.602Z,21.50
2022-11-20T00:51:17.098Z,20.75
2022-11-20T00:53:44.641Z,20.25
2022-11-20T00:56:17.194Z,21.60
2022-11-20T00:58:47.464Z,20.90
2022-11-20T01:01:18.765Z,18.80
2022-11-20T01:03:48.365Z,19.63
2022-11-20T01:06:24.395Z,17.88
2022-11-20T01:08:53.565Z,18.25
2022-11-20T01:11:32.087Z,16.00
2022-11-20T01:14:01.864Z,16.40
2022-11-20T01:16:32.382Z,16.42
2022-11-20T01:19:01.399Z,19.45
2022-11-20T01:21:31.570Z,16.15
2022-11-20T01:23:59.638Z,15.40
2022-11-20T01:26:31.297Z,15.33
2022-11-20T01:28:59.050Z,17.08
2022-11-20T01:31:37.851Z,17.55
2022-11-20T01:34:07.686Z,19.02
2022-11-20T01:36:36.882Z,14.63
2022-11-20T01:39:09.012Z,16.67
2022-11-20T01:41:54.704Z,15.38
2022-11-20T01:44:43.038Z,17.52
2022-11-20T01:47:14.090Z,13.73
2022-11-20T01:49:49.532Z,15.27
2022-11-20T01:52:20.616Z,17.70
2022-11-20T01:55:14.151Z,18.13
2022-11-20T01:57:42.061Z,15.20
2022-11-20T02:00:12.100Z,15.80
2022-11-20T02:02:47.079Z,16.30
2022-11-20T02:05:35.075Z,14.30
2022-11-20T02:08:04.300Z,16.15
2022-11-20T02:10:32.074Z,14.52
2022-11-20T02:13:18.770Z,17.17
2022-11-20T02:15:46.693Z,16.40
2022-11-20T02:18:17.202Z,13.77
2022-11-20T02:20:46.350Z,15.25
2022-11-20T02:23:22.022Z,13.02
2022-11-20T02:25:50.317Z,13.68
2022-11-20T02:28:18.686Z,15.73
2022-11-20T02:30:45.680Z,15.83
2022-11-20T02:33:13.476Z,15.68
2022-11-20T02:35:47.054Z,12.13
2022-11-20T02:38:15.468Z,15.50
2022-11-20T02:40:43.252Z,14.35
2022-11-20T02:43:11.267Z,14.97
2022-11-20T02:45:38.728Z,15.88
2022-11-20T02:48:08.040Z,16.58
2022-11-20T02:50:38.938Z,13.98
2022-11-20T02:53:06.107Z,15.63
2022-11-20T02:55:33.515Z,13.90
2022-11-20T02:58:00.514Z,15.60
2022-11-20T03:00:27.493Z,16.13
2022-11-20T03:02:54.494Z,16.48
2022-11-20T03:05:21.611Z,17.55
2022-11-20T03:07:48.708Z,15.43
2022-11-20T03:10:15.723Z,19.98
2022-11-20T03:12:42.666Z,15.20
2022-11-20T03:15:10.304Z,16.55
2022-11-20T03:17:37.653Z,17.90
2022-11-20T03:20:05.301Z,15.97
2022-11-20T03:22:32.504Z,14.77
2022-11-20T03:24:59.608Z,20.88
2022-11-20T03:27:26.569Z,17.58
2022-11-20T03:29:53.909Z,16.25
2022-11-20T03:32:21.068Z,14.77
2022-11-20T03:34:48.166Z,16.25
2022-11-20T03:37:15.223Z,16.30
2022-11-20T03:39:42.336Z,13.20
2022-11-20T03:42:29.986Z,13.40
2022-11-20T03:44:56.998Z,15.13
2022-11-20T03:47:23.985Z,16.40
2022-11-20T03:49:51.330Z,15.55
2022-11-20T03:52:18.275Z,13.20
2022-11-20T03:54:47.369Z,15.80
2022-11-20T03:57:14.546Z,14.90
2022-11-20T03:59:41.645Z,14.85
2022-11-20T04:02:08.609Z,16.45
2022-11-20T04:04:35.637Z,16.55
2022-11-20T04:07:54.334Z,15.90
2022-11-20T04:10:24.454Z,13.10
2022-11-20T04:12:53.246Z,15.50
2022-11-20T04:15:21.284Z,16.58
2022-11-20T04:17:48.204Z,15.52
2022-11-20T04:20:15.703Z,15.85
2022-11-20T04:22:42.614Z,17.17
2022-11-20T04:25:09.909Z,17.58
2022-11-20T04:27:36.810Z,15.10
2022-11-20T04:30:04.490Z,14.20
2022-11-20T04:32:31.669Z,17.88
2022-11-20T04:34:58.616Z,16.10
2022-11-20T04:37:25.590Z,17.38
2022-11-20T04:39:52.566Z,15.63
2022-11-20T04:42:31.544Z,19.33
2022-11-20T04:44:59.669Z,15.98
2022-11-20T04:47:26.806Z,15.73
2022-11-20T04:49:53.863Z,17.00
2022-11-20T04:52:21.175Z,18.70
2022-11-20T04:54:48.093Z,16.75
2022-11-20T04:57:15.579Z,18.63
2022-11-20T04:59:42.738Z,18.07
2022-11-20T05:02:10.475Z,13.95
2022-11-20T05:04:37.352Z,19.48
2022-11-20T05:07:04.943Z,18.63
2022-11-20T05:09:32.697Z,20.95
2022-11-20T05:11:59.699Z,20.80
2022-11-20T05:14:26.805Z,21.40
2022-11-20T05:16:56.254Z,18.92
2022-11-20T05:19:23.476Z,25.38
2022-11-20T05:21:50.512Z,20.20
2022-11-20T05:24:17.720Z,23.23
2022-11-20T05:26:52.175Z,20.15
2022-11-20T05:29:19.379Z,22.38
2022-11-20T05:31:46.594Z,21.85
2022-11-20T05:34:13.593Z,21.33
2022-11-20T05:36:42.972Z,17.70
2022-11-20T05:39:10.809Z,18.02
2022-11-20T05:41:37.920Z,20.90
2022-11-20T05:44:05.049Z,19.42
2022-11-20T05:46:32.231Z,19.20
2022-11-20T05:48:59.448Z,18.80
2022-11-20T05:51:27.673Z,16.80
2022-11-20T05:53:55.183Z,19.15
2022-11-20T05:56:23.733Z,15.63
2022-11-20T05:58:51.291Z,19.92
2022-11-20T06:01:24.026Z,19.43
2022-11-20T06:03:52.106Z,18.85
2022-11-20T06:06:20.633Z,17.83
2022-11-20T06:08:49.041Z,16.27
2022-11-20T06:11:17.159Z,19.25
2022-11-20T06:13:45.769Z,17.60
2022-11-20T06:16:15.186Z,19.75
2022-11-20T06:18:42.419Z,19.52
2022-11-20T06:21:11.797Z,16.95
2022-11-20T06:23:39.061Z,16.80
2022-11-20T06:26:11.907Z,20.17
2022-11-20T06:28:40.048Z,19.00
2022-11-20T06:31:08.484Z,19.67
2022-11-20T06:33:35.941Z,20.42
2022-11-20T06:36:08.934Z,19.33
2022-11-20T06:38:37.939Z,20.80
2022-11-20T06:41:12.552Z,18.35
2022-11-20T06:43:39.519Z,20.48
2022-11-20T06:46:07.059Z,22.65
2022-11-20T06:48:34.237Z,21.25
2022-11-20T06:51:06.240Z,19.77
2022-11-20T06:53:33.457Z,20.23
2022-11-20T06:56:00.615Z,28.90
2022-11-20T06:58:32.226Z,26.55
2022-11-20T07:01:05.005Z,23.77
2022-11-20T07:03:32.445Z,23.97
2022-11-20T07:06:01.116Z,21.95
2022-11-20T07:08:28.572Z,22.08
2022-11-20T07:10:59.953Z,16.10
2022-11-20T07:13:28.149Z,22.40
2022-11-20T07:15:55.927Z,20.27
2022-11-20T07:18:25.754Z,20.95
2022-11-20T07:20:52.637Z,18.85
2022-11-20T07:23:19.859Z,21.38
2022-11-20T07:25:46.901Z,19.73
2022-11-20T07:28:14.992Z,31.47
2022-11-20T07:30:41.867Z,25.88
2022-11-20T07:33:09.048Z,18.88
2022-11-20T07:35:39.940Z,19.85
2022-11-20T07:38:06.943Z,24.17
2022-11-20T07:40:33.813Z,20.13
2022-11-20T07:43:01.399Z,21.45
2022-11-20T07:45:28.506Z,25.38
2022-11-20T07:47:55.525Z,19.73
2022-11-20T07:50:22.682Z,26.20
2022-11-20T07:52:49.901Z,23.27
2022-11-20T07:55:17.314Z,29.63
2022-11-20T07:57:45.150Z,25.98
2022-11-20T08:00:16.191Z,22.63
2022-11-20T08:02:43.795Z,23.05
2022-11-20T08:05:11.494Z,25.90
2022-11-20T08:07:42.508Z,25.52
2022-11-20T08:10:15.054Z,26.88
2022-11-20T08:13:18.875Z,23.58
2022-11-20T08:16:08.729Z,24.88
2022-11-20T08:18:35.882Z,23.67
2022-11-20T08:21:05.497Z,24.30
2022-11-20T08:23:32.801Z,29.10
2022-11-20T08:25:59.987Z,30.38
2022-11-20T08:28:59.377Z,22.95
2022-11-20T08:31:32.474Z,29.77
2022-11-20T08:34:20.078Z,24.10
2022-11-20T08:36:47.365Z,29.25
2022-11-20T08:39:15.189Z,24.92
2022-11-20T08:41:46.953Z,30.40
2022-11-20T08:44:15.887Z,27.67
2022-11-20T08:46:44.793Z,30.70
2022-11-20T08:49:13.841Z,24.40
2022-11-20T08:51:41.533Z,26.27
2022-11-20T08:54:11.480Z,32.40
2022-11-20T08:56:41.071Z,33.03
2022-11-20T08:59:26.958Z,28.52
2022-11-20T09:01:56.399Z,32.17
2022-11-20T09:04:23.799Z,31.52
2022-11-20T09:06:54.008Z,31.83
2022-11-20T09:10:03.841Z,29.77
2022-11-20T09:12:41.717Z,25.70
2022-11-20T09:15:12.989Z,29.85
2022-11-20T09:17:39.972Z,28.58
2022-11-20T09:20:07.256Z,26.33
2022-11-20T09:22:42.158Z,33.40
2022-11-20T09:25:32.583Z,33.28
2022-11-20T09:28:00.908Z,28.08
2022-11-20T09:30:28.650Z,30.40
2022-11-20T09:33:00.576Z,34.20
2022-11-20T09:35:28.123Z,36.73
2022-11-20T09:37:57.575Z,29.52
2022-11-20T09:40:30.642Z,31.50
2022-11-20T09:43:25.308Z,32.63
2022-11-20T09:46:00.441Z,32.55
2022-11-20T09:48:35.867Z,39.83
2022-11-20T09:51:38.354Z,35.47
2022-11-20T09:54:05.254Z,38.95
2022-11-20T09:56:57.675Z,31.73
2022-11-20T09:59:35.859Z,30.55
2022-11-20T10:02:08.012Z,31.07
2022-11-20T10:04:40.746Z,34.25
2022-11-20T10:07:37.756Z,30.05
2022-11-20T10:10:05.796Z,34.35
2022-11-20T10:12:57.916Z,27.42
2022-11-20T10:15:47.616Z,31.03
2022-11-20T10:18:20.452Z,28.10
2022-11-20T10:20:54.301Z,30.50
2022-11-20T10:23:42.570Z,28.45
2022-11-20T10:26:15.537Z,30.85
2022-11-20T10:28:58.741Z,32.53
2022-11-20T10:31:39.481Z,28.90
2022-11-20T10:34:22.735Z,29.42
2022-11-20T10:37:11.055Z,27.63
2022-11-20T10:39:47.572Z,35.53
2022-11-20T10:42:25.602Z,25.60
2022-11-20T10:45:06.636Z,31.00
2022-11-20T10:47:34.572Z,26.90
2022-11-20T10:50:07.084Z,28.13
2022-11-20T10:52:39.773Z,31.77
2022-11-20T10:55:26.714Z,27.70
2022-11-20T10:58:20.325Z,25.17
2022-11-20T11:00:47.260Z,25.67
2022-11-20T11:03:32.711Z,28.50
2022-11-20T11:06:11.753Z,25.63
2022-11-20T11:08:44.986Z,26.43
2022-11-20T11:11:42.246Z,22.15
2022-11-20T11:14:17.510Z,25.95
2022-11-20T11:16:59.021Z,29.17
2022-11-20T11:19:32.915Z,22.27
2022-11-20T11:22:00.910Z,24.80
2022-11-20T11:27:33.414Z,20.70
2022-11-20T11:30:35.568Z,25.73
2022-11-20T11:33:07.672Z,22.42
2022-11-20T11:35:38.128Z,20.73
2022-11-20T11:38:16.986Z,23.60
2022-11-20T11:40:47.657Z,22.88
2022-11-20T11:43:44.457Z,19.20
2022-11-20T11:46:38.775Z,18.27
2022-11-20T11:49:21.390Z,18.87
2022-11-20T11:52:03.873Z,15.95
2022-11-20T11:54:38.552Z,17.17
2022-11-20T11:57:38.487Z,16.42
2022-11-20T12:00:13.427Z,19.67
2022-11-20T12:02:47.452Z,20.50
2022-11-20T12:05:39.250Z,17.30
2022-11-20T12:08:28.587Z,17.83
2022-11-20T12:11:02.728Z,16.95
2022-11-20T12:13:40.565Z,20.05
2022-11-20T12:16:15.361Z,15.93
2022-11-20T12:18:47.992Z,20.25
2022-11-20T12:21:42.019Z,19.92
2022-11-20T12:24:12.506Z,18.45
2022-11-20T12:27:18.798Z,19.10
2022-11-20T12:30:09.650Z,16.30
2022-11-20T12:33:08.155Z,19.38
2022-11-20T12:35:54.053Z,21.13
2022-11-20T12:38:42.930Z,17.38
2022-11-20T12:41:40.489Z,17.08
2022-11-20T12:44:40.914Z,19.80
2022-11-20T12:47:19.752Z,19.02
2022-11-20T12:50:06.062Z,20.55
2022-11-20T12:52:57.100Z,16.95
2022-11-20T12:55:30.013Z,19.67
2022-11-20T12:58:28.538Z,18.90
2022-11-20T13:01:49.199Z,18.98
2022-11-20T13:04:37.321Z,21.23
2022-11-20T13:07:14.415Z,19.42
2022-11-20T13:09:51.767Z,18.83
2022-11-20T13:12:27.021Z,22.83
2022-11-20T13:15:03.703Z,22.48
2022-11-20T13:17:58.840Z,21.23
2022-11-20T13:20:35.455Z,19.65
2022-11-20T13:23:02.923Z,19.95
2022-11-20T13:25:35.314Z,22.13
2022-11-20T13:28:30.261Z,20.10
2022-11-20T13:30:58.975Z,21.05
2022-11-20T13:33:33.574Z,16.50
2022-11-20T13:36:06.760Z,19.55
2022-11-20T13:38:50.140Z,18.43
2022-11-20T13:41:40.472Z,16.85
2022-11-20T13:44:12.836Z,16.55
2022-11-20T13:46:45.686Z,16.50
2022-11-20T13:49:31.964Z,20.42
2022-11-20T13:52:20.701Z,17.63
2022-11-20T13:55:28.776Z,16.25
2022-11-20T13:58:01.630Z,16.33
2022-11-20T14:00:30.788Z,17.98
2022-11-20T14:03:08.605Z,18.40
2022-11-20T14:05:39.635Z,20.53
2022-11-20T14:08:14.482Z,22.55
2022-11-20T14:10:41.596Z,20.83
2022-11-20T14:13:18.664Z,20.90
2022-11-20T14:15:45.742Z,18.75
2022-11-20T14:18:16.728Z,21.30
2022-11-20T14:20:47.558Z,21.13
2022-11-20T14:23:30.794Z,17.02
2022-11-20T14:25:58.382Z,19.33
2022-11-20T14:28:32.690Z,18.15
2022-11-20T14:30:59.925Z,20.00
2022-11-20T14:33:29.222Z,20.83
2022-11-20T14:35:58.852Z,21.70
2022-11-20T14:38:29.672Z,20.02
2022-11-20T14:41:10.775Z,17.98
2022-11-20T14:43:38.889Z,21.67
2022-11-20T14:46:09.814Z,19.67
2022-11-20T14:48:45.533Z,17.35
2022-11-20T14:51:24.433Z,17.85
2022-11-20T14:53:52.168Z,21.17
2022-11-20T14:56:24.587Z,19.13
2022-11-20T14:58:59.130Z,19.98
2022-11-20T15:01:31.907Z,19.40
2022-11-20T15:04:19.329Z,20.30
2022-11-20T15:06:55.089Z,18.88
2022-11-20T15:10:42.059Z,24.30
2022-11-20T15:13:16.654Z,25.17
2022-11-20T15:15:51.460Z,22.20
2022-11-20T15:18:22.366Z,21.00
2022-11-20T15:20:49.942Z,21.67
2022-11-20T15:23:21.593Z,21.90
2022-11-20T15:25:49.862Z,22.40
2022-11-20T15:28:28.760Z,22.45
2022-11-20T15:30:57.094Z,23.10
2022-11-20T15:33:24.092Z,21.75
2022-11-20T15:35:52.599Z,22.60
2022-11-20T15:38:19.672Z,21.23
2022-11-20T15:40:46.998Z,22.75
2022-11-20T15:43:14.261Z,21.00
2022-11-20T15:45:42.924Z,19.48
2022-11-20T15:48:17.230Z,20.07
2022-11-20T15:51:13.151Z,21.10
2022-11-20T15:53:41.882Z,22.55
2022-11-20T15:56:15.815Z,21.35
2022-11-20T15:58:43.319Z,23.80
2022-11-20T16:01:16.286Z,24.23
2022-11-20T16:03:44.059Z,22.65
2022-11-20T16:06:11.351Z,21.63
2022-11-20T16:08:38.398Z,19.38
2022-11-20T16:11:05.730Z,20.38
2022-11-20T16:13:52.843Z,23.20
2022-11-20T16:16:29.780Z,21.20
2022-11-20T16:18:57.164Z,18.80
2022-11-20T16:21:33.786Z,26.35
2022-11-20T16:24:03.389Z,20.10
2022-11-20T16:26:30.928Z,20.77
2022-11-20T16:29:04.359Z,18.58
2022-11-20T16:31:31.438Z,21.92
2022-11-20T16:34:07.162Z,21.15
2022-11-20T16:36:54.488Z,24.75
2022-11-20T16:39:23.850Z,18.97
2022-11-20T16:41:51.412Z,23.50
2022-11-20T16:44:18.745Z,22.90
2022-11-20T16:47:15.531Z,22.05
2022-11-20T16:49:40.327Z,18.65
2022-11-20T16:52:10.415Z,20.97
2022-11-20T16:54:51.403Z,30.45
2022-11-20T16:57:25.206Z,25.95
2022-11-20T16:59:52.679Z,21.90
2022-11-20T17:02:20.014Z,21.88
2022-11-20T17:04:47.338Z,21.53
2022-11-20T17:07:20.397Z,20.70
2022-11-20T17:13:05.470Z,23.65
2022-11-20T17:15:40.094Z,22.85
2022-11-20T17:18:09.796Z,22.13
2022-11-20T17:20:46.335Z,22.30
2022-11-20T17:23:14.713Z,21.58
2022-11-20T17:25:52.640Z,25.60
2022-11-20T17:28:23.328Z,25.08
2022-11-20T17:30:54.818Z,34.40
2022-11-20T17:33:21.720Z,33.03
2022-11-20T17:35:48.813Z,22.67
2022-11-20T17:38:15.905Z,23.63
2022-11-20T17:40:43.002Z,22.00
2022-11-20T17:43:10.030Z,25.10
2022-11-20T17:45:39.939Z,21.80
2022-11-20T17:48:08.099Z,23.05
2022-11-20T17:50:35.449Z,19.60
2022-11-20T17:53:02.790Z,22.85
2022-11-20T17:55:55.349Z,19.70
2022-11-20T17:58:22.995Z,19.90
2022-11-20T18:00:52.527Z,22.08
2022-11-20T18:03:19.723Z,24.08
2022-11-20T18:05:46.994Z,20.35
2022-11-20T18:08:14.250Z,19.40
2022-11-20T18:10:44.754Z,24.88
2022-11-20T18:13:14.075Z,26.75
2022-11-20T18:15:41.112Z,26.67
2022-11-20T18:18:08.170Z,31.48
2022-11-20T18:20:39.623Z,28.23
2022-11-20T18:23:07.080Z,23.73
2022-11-20T18:25:34.427Z,35.53
2022-11-20T18:28:01.518Z,29.88
2022-11-20T18:30:28.628Z,26.40
2022-11-20T18:32:56.231Z,31.97
2022-11-20T18:35:23.475Z,27.20
2022-11-20T18:37:50.512Z,27.48
2022-11-20T18:40:19.751Z,30.65
2022-11-20T18:43:06.143Z,31.35
2022-11-20T18:45:33.339Z,27.50
2022-11-20T18:48:00.771Z,27.05
2022-11-20T18:50:28.103Z,24.45
2022-11-20T18:52:57.753Z,25.33
2022-11-20T18:55:26.369Z,24.23
2022-11-20T18:57:55.332Z,27.33
2022-11-20T19:00:23.451Z,23.20
2022-11-20T19:03:04.803Z,26.35
2022-11-20T19:05:41.827Z,23.70
2022-11-20T19:08:12.000Z,20.52
2022-11-20T19:10:40.217Z,16.17
2022-11-20T19:13:07.465Z,18.98
2022-11-20T19:15:36.214Z,19.42
2022-11-20T19:18:03.355Z,16.10
2022-11-20T19:20:32.008Z,19.25
2022-11-20T19:22:59.134Z,20.83
2022-11-20T19:25:26.500Z,18.35
2022-11-20T19:27:54.401Z,19.70
2022-11-20T19:30:22.497Z,15.73
2022-11-20T19:32:49.669Z,17.98
2022-11-20T19:35:16.970Z,18.83
2022-11-20T19:37:45.260Z,15.82
2022-11-20T19:40:15.222Z,19.98
2022-11-20T19:42:42.351Z,18.80
2022-11-20T19:45:11.919Z,15.93
2022-11-20T19:48:06.801Z,18.97
2022-11-20T19:50:26.449Z,17.35
2022-11-20T19:52:58.492Z,18.42
2022-11-20T19:55:28.400Z,20.42
2022-11-20T19:57:56.668Z,18.10
2022-11-20T20:00:31.197Z,21.63
2022-11-20T20:03:04.065Z,24.67
2022-11-20T20:05:31.330Z,22.48
2022-11-20T20:07:58.445Z,23.02
2022-11-20T20:10:29.147Z,25.60
2022-11-20T20:12:59.118Z,22.27
2022-11-20T20:15:29.988Z,24.75
2022-11-20T20:17:59.403Z,23.80
2022-11-20T20:20:28.934Z,19.23
2022-11-20T20:22:56.042Z,23.23
2022-11-20T20:25:23.156Z,26.37
2022-11-20T20:27:50.386Z,21.50
2022-11-20T20:30:20.134Z,22.02
2022-11-20T20:32:48.902Z,24.27
2022-11-20T20:35:18.951Z,19.58
2022-11-20T20:37:45.941Z,21.77
2022-11-20T20:40:15.284Z,30.27
2022-11-20T20:45:34.899Z,30.45
2022-11-20T20:48:03.933Z,27.83
2022-11-20T20:50:30.945Z,26.37
2022-11-20T20:52:58.387Z,24.77
2022-11-20T20:55:25.849Z,25.83
2022-11-20T20:57:53.784Z,25.35
2022-11-20T21:00:21.000Z,26.80
2022-11-20T21:02:48.286Z,27.73
2022-11-20T21:05:15.423Z,22.98
2022-11-20T21:08:11.207Z,26.05
2022-11-20T21:10:38.370Z,34.90
2022-11-20T21:13:05.480Z,26.80
2022-11-20T21:15:32.444Z,26.27
2022-11-20T21:17:59.387Z,26.92
2022-11-20T21:20:44.872Z,28.20
2022-11-20T21:23:12.067Z,29.88
2022-11-20T21:25:39.714Z,27.45
2022-11-20T21:28:07.609Z,27.93
2022-11-20T21:30:35.195Z,24.77
2022-11-20T21:33:02.278Z,24.85
2022-11-20T21:35:30.678Z,20.48
2022-11-20T21:37:57.795Z,26.65
2022-11-20T21:40:24.792Z,25.93
2022-11-20T21:42:53.995Z,26.67
2022-11-20T21:45:21.732Z,24.88
2022-11-20T21:47:52.024Z,27.33
2022-11-20T21:50:19.302Z,23.20
2022-11-20T21:52:46.341Z,19.27
2022-11-20T21:55:13.392Z,22.48
2022-11-20T21:57:40.400Z,22.17
2022-11-20T22:00:08.089Z,20.88
2022-11-20T22:02:44.600Z,23.27
2022-11-20T22:05:12.032Z,24.03
2022-11-20T22:07:43.768Z,24.35
2022-11-20T22:10:17.087Z,25.73
2022-11-20T22:12:45.344Z,23.33
2022-11-20T22:15:12.252Z,24.45
2022-11-20T22:17:58.199Z,28.03
2022-11-20T22:20:25.328Z,28.80
2022-11-20T22:22:52.318Z,25.92
2022-11-20T22:25:19.243Z,24.55
2022-11-20T22:27:46.758Z,26.38
2022-11-20T22:30:14.100Z,26.13
2022-11-20T22:32:41.125Z,27.23
2022-11-20T22:35:08.354Z,24.73
2022-11-20T22:37:35.315Z,27.15
2022-11-20T22:40:02.337Z,25.65
2022-11-20T22:42:30.445Z,25.47
2022-11-20T22:44:57.595Z,28.08
2022-11-20T22:47:24.707Z,27.17
2022-11-20T22:49:51.944Z,23.83
2022-11-20T22:52:19.000Z,26.63
2022-11-20T22:54:45.962Z,33.03
2022-11-20T22:57:13.010Z,28.55
2022-11-20T22:59:41.716Z,27.02
2022-11-20T23:02:09.107Z,27.20
2022-11-20T23:04:36.238Z,25.33
2022-11-20T23:07:04.743Z,27.40
2022-11-20T23:09:32.002Z,28.38
2022-11-20T23:11:58.937Z,27.85
2022-11-20T23:14:27.860Z,30.58
2022-11-20T23:16:55.130Z,28.40
2022-11-20T23:19:22.797Z,29.23
2022-11-20T23:21:49.926Z,35.05
2022-11-20T23:24:16.970Z,31.92
2022-11-20T23:26:45.304Z,33.08
2022-11-20T23:29:13.006Z,35.22
2022-11-20T23:31:40.025Z,29.77
2022-11-20T23:34:07.099Z,32.17
2022-11-20T23:36:34.217Z,27.27
2022-11-20T23:39:01.239Z,26.40
2022-11-20T23:41:28.416Z,31.20
2022-11-20T23:43:55.436Z,29.47
2022-11-20T23:46:22.704Z,25.67
2022-11-20T23:48:49.853Z,29.67
2022-11-20T23:51:17.659Z,31.17
2022-11-20T23:53:44.688Z,30.42
2022-11-20T23:56:14.822Z,26.27
2022-11-20T23:58:42.853Z,28.52
